sensor_id;sensor_type;location;lat;lon;timestamp;temperature;humidity
48836;DHT22;62581;47.342;7.908;2023-08-24T00:00:00;24.80;99.90
48836;DHT22;62581;47.342;7.908;2023-08-24T00:02:40;24.70;99.90
48836;DHT22;62581;47.342;7.908;2023-08-24T00:05:10;24.70;99.90
48836;DHT22;62581;47.342;7.908;2023-08-24T00:07:47;24.60;99.90
48836;DHT22;62581;47.342;7.908;2023-08-24T00:10:18;24.60;99.90
48836;DHT22;62581;47.342;7.908;2023-08-24T00:12:48;24.50;99.90
48836;DHT22;62581;47.342;7.908;2023-08-24T00:15:15;24.50;99.90
48836;DHT22;62581;47.342;7.908;2023-08-24T00:17:43;24.50;99.90
48836;DHT22;62581;47.342;7.908;2023-08-24T00:20:11;24.50;99.90
48836;DHT22;62581;47.342;7.908;2023-08-24T00:22:42;24.40;99.90
48836;DHT22;62581;47.342;7.908;2023-08-24T00:25:11;24.40;99.90
48836;DHT22;62581;47.342;7.908;2023-08-24T00:27:44;24.30;99.90
48836;DHT22;62581;47.342;7.908;2023-08-24T00:30:14;24.20;99.90
48836;DHT22;62581;47.342;7.908;2023-08-24T00:32:41;24.20;99.90
48836;DHT22;62581;47.342;7.908;2023-08-24T00:35:11;24.20;99.90
48836;DHT22;62581;47.342;7.908;2023-08-24T00:37:44;24.10;99.90
48836;DHT22;62581;47.342;7.908;2023-08-24T00:40:26;24.10;99.90
48836;DHT22;62581;47.342;7.908;2023-08-24T00:43:20;24.10;99.90
48836;DHT22;62581;47.342;7.908;2023-08-24T00:49:04;24.00;99.90
48836;DHT22;62581;47.342;7.908;2023-08-24T00:51:52;23.90;99.90
48836;DHT22;62581;47.342;7.908;2023-08-24T00:54:35;23.80;99.90
48836;DHT22;62581;47.342;7.908;2023-08-24T00:57:32;23.80;99.90
48836;DHT22;62581;47.342;7.908;2023-08-24T01:00:13;23.80;99.90
48836;DHT22;62581;47.342;7.908;2023-08-24T01:02:48;23.90;99.90
48836;DHT22;62581;47.342;7.908;2023-08-24T01:05:15;23.80;99.90
48836;DHT22;62581;47.342;7.908;2023-08-24T01:07:45;23.80;99.90
48836;DHT22;62581;47.342;7.908;2023-08-24T01:10:20;23.70;99.90
48836;DHT22;62581;47.342;7.908;2023-08-24T01:12:56;23.60;99.90
48836;DHT22;62581;47.342;7.908;2023-08-24T01:15:32;23.60;99.90
48836;DHT22;62581;47.342;7.908;2023-08-24T01:18:05;23.60;99.90
48836;DHT22;62581;47.342;7.908;2023-08-24T01:20:35;23.50;99.90
48836;DHT22;62581;47.342;7.908;2023-08-24T01:23:07;23.50;99.90
48836;DHT22;62581;47.342;7.908;2023-08-24T01:25:40;23.50;99.90
48836;DHT22;62581;47.342;7.908;2023-08-24T01:28:19;23.50;99.90
48836;DHT22;62581;47.342;7.908;2023-08-24T01:30:49;23.60;99.90
48836;DHT22;62581;47.342;7.908;2023-08-24T01:33:18;23.60;99.90
48836;DHT22;62581;47.342;7.908;2023-08-24T01:35:45;23.50;99.90
48836;DHT22;62581;47.342;7.908;2023-08-24T01:38:12;23.50;99.90
48836;DHT22;62581;47.342;7.908;2023-08-24T01:40:49;23.50;99.90
48836;DHT22;62581;47.342;7.908;2023-08-24T01:44:07;23.50;99.90
48836;DHT22;62581;47.342;7.908;2023-08-24T01:46:50;23.50;99.90
48836;DHT22;62581;47.342;7.908;2023-08-24T01:52:34;23.40;99.90
48836;DHT22;62581;47.342;7.908;2023-08-24T01:55:21;23.40;99.90
48836;DHT22;62581;47.342;7.908;2023-08-24T01:57:56;23.40;99.90
48836;DHT22;62581;47.342;7.908;2023-08-24T02:00:24;23.40;99.90
48836;DHT22;62581;47.342;7.908;2023-08-24T02:02:56;23.30;99.90
48836;DHT22;62581;47.342;7.908;2023-08-24T02:05:23;23.30;99.90
48836;DHT22;62581;47.342;7.908;2023-08-24T02:10:46;23.20;99.90
48836;DHT22;62581;47.342;7.908;2023-08-24T02:13:18;23.20;99.90
48836;DHT22;62581;47.342;7.908;2023-08-24T02:15:48;23.10;99.90
48836;DHT22;62581;47.342;7.908;2023-08-24T02:18:19;23.10;99.90
48836;DHT22;62581;47.342;7.908;2023-08-24T02:20:51;23.10;99.90
48836;DHT22;62581;47.342;7.908;2023-08-24T02:23:27;23.00;99.90
48836;DHT22;62581;47.342;7.908;2023-08-24T02:26:21;23.00;99.90
48836;DHT22;62581;47.342;7.908;2023-08-24T02:28:52;23.00;99.90
48836;DHT22;62581;47.342;7.908;2023-08-24T02:34:16;22.90;99.90
48836;DHT22;62581;47.342;7.908;2023-08-24T02:37:00;22.90;99.90
48836;DHT22;62581;47.342;7.908;2023-08-24T02:39:28;22.90;99.90
48836;DHT22;62581;47.342;7.908;2023-08-24T02:41:55;22.90;99.90
48836;DHT22;62581;47.342;7.908;2023-08-24T02:44:22;22.80;99.90
48836;DHT22;62581;47.342;7.908;2023-08-24T02:46:50;22.80;99.90
48836;DHT22;62581;47.342;7.908;2023-08-24T02:49:18;22.80;99.90
48836;DHT22;62581;47.342;7.908;2023-08-24T02:51:46;22.80;99.90
48836;DHT22;62581;47.342;7.908;2023-08-24T02:54:13;22.70;99.90
48836;DHT22;62581;47.342;7.908;2023-08-24T02:56:40;22.70;99.90
48836;DHT22;62581;47.342;7.908;2023-08-24T02:59:07;22.70;99.90
48836;DHT22;62581;47.342;7.908;2023-08-24T03:01:34;22.60;99.90
48836;DHT22;62581;47.342;7.908;2023-08-24T03:04:07;22.60;99.90
48836;DHT22;62581;47.342;7.908;2023-08-24T03:06:35;22.60;99.90
48836;DHT22;62581;47.342;7.908;2023-08-24T03:09:02;22.60;99.90
48836;DHT22;62581;47.342;7.908;2023-08-24T03:11:30;22.50;99.90
48836;DHT22;62581;47.342;7.908;2023-08-24T03:13:57;22.50;99.90
48836;DHT22;62581;47.342;7.908;2023-08-24T03:16:24;22.50;99.90
48836;DHT22;62581;47.342;7.908;2023-08-24T03:18:51;22.50;99.90
48836;DHT22;62581;47.342;7.908;2023-08-24T03:21:18;22.50;99.90
48836;DHT22;62581;47.342;7.908;2023-08-24T03:23:53;22.40;99.90
48836;DHT22;62581;47.342;7.908;2023-08-24T03:26:44;22.40;99.90
48836;DHT22;62581;47.342;7.908;2023-08-24T03:29:14;22.40;99.90
48836;DHT22;62581;47.342;7.908;2023-08-24T03:31:46;22.40;99.90
48836;DHT22;62581;47.342;7.908;2023-08-24T03:34:18;22.30;99.90
48836;DHT22;62581;47.342;7.908;2023-08-24T03:36:48;22.30;99.90
48836;DHT22;62581;47.342;7.908;2023-08-24T03:39:26;22.20;99.90
48836;DHT22;62581;47.342;7.908;2023-08-24T03:41:55;22.20;99.90
48836;DHT22;62581;47.342;7.908;2023-08-24T03:44:27;22.20;99.90
48836;DHT22;62581;47.342;7.908;2023-08-24T03:46:57;22.10;99.90
48836;DHT22;62581;47.342;7.908;2023-08-24T03:49:24;22.10;99.90
48836;DHT22;62581;47.342;7.908;2023-08-24T03:51:51;22.10;99.90
48836;DHT22;62581;47.342;7.908;2023-08-24T03:54:21;22.10;99.90
48836;DHT22;62581;47.342;7.908;2023-08-24T03:56:48;22.00;99.90
48836;DHT22;62581;47.342;7.908;2023-08-24T03:59:16;22.00;99.90
48836;DHT22;62581;47.342;7.908;2023-08-24T04:01:43;22.00;99.90
48836;DHT22;62581;47.342;7.908;2023-08-24T04:04:10;21.90;99.90
48836;DHT22;62581;47.342;7.908;2023-08-24T04:06:37;21.90;99.90
48836;DHT22;62581;47.342;7.908;2023-08-24T04:09:04;21.90;99.90
48836;DHT22;62581;47.342;7.908;2023-08-24T04:11:33;21.90;99.90
48836;DHT22;62581;47.342;7.908;2023-08-24T04:14:01;21.90;99.90
48836;DHT22;62581;47.342;7.908;2023-08-24T04:16:29;21.90;99.90
48836;DHT22;62581;47.342;7.908;2023-08-24T04:18:56;21.90;99.90
48836;DHT22;62581;47.342;7.908;2023-08-24T04:21:23;21.90;99.90
48836;DHT22;62581;47.342;7.908;2023-08-24T04:23:50;22.00;99.90
48836;DHT22;62581;47.342;7.908;2023-08-24T04:26:19;22.00;99.90
48836;DHT22;62581;47.342;7.908;2023-08-24T04:32:21;21.90;99.90
48836;DHT22;62581;47.342;7.908;2023-08-24T04:34:50;21.90;99.90
48836;DHT22;62581;47.342;7.908;2023-08-24T04:37:19;21.90;99.90
48836;DHT22;62581;47.342;7.908;2023-08-24T04:39:46;21.80;99.90
48836;DHT22;62581;47.342;7.908;2023-08-24T04:42:13;21.80;99.90
48836;DHT22;62581;47.342;7.908;2023-08-24T04:44:40;21.80;99.90
48836;DHT22;62581;47.342;7.908;2023-08-24T04:47:08;21.70;99.90
48836;DHT22;62581;47.342;7.908;2023-08-24T04:49:37;21.70;99.90
48836;DHT22;62581;47.342;7.908;2023-08-24T04:52:04;21.70;99.90
48836;DHT22;62581;47.342;7.908;2023-08-24T04:54:32;21.70;99.90
48836;DHT22;62581;47.342;7.908;2023-08-24T04:56:59;21.60;99.90
48836;DHT22;62581;47.342;7.908;2023-08-24T04:59:26;21.60;99.90
48836;DHT22;62581;47.342;7.908;2023-08-24T05:01:59;21.60;99.90
48836;DHT22;62581;47.342;7.908;2023-08-24T05:04:34;21.50;99.90
48836;DHT22;62581;47.342;7.908;2023-08-24T05:07:04;21.60;99.90
48836;DHT22;62581;47.342;7.908;2023-08-24T05:09:32;21.50;99.90
48836;DHT22;62581;47.342;7.908;2023-08-24T05:12:10;21.50;99.90
48836;DHT22;62581;47.342;7.908;2023-08-24T05:14:41;21.60;99.90
48836;DHT22;62581;47.342;7.908;2023-08-24T05:17:11;21.60;99.90
48836;DHT22;62581;47.342;7.908;2023-08-24T05:19:41;21.70;99.90
48836;DHT22;62581;47.342;7.908;2023-08-24T05:22:12;21.70;99.90
48836;DHT22;62581;47.342;7.908;2023-08-24T05:24:39;21.80;99.90
48836;DHT22;62581;47.342;7.908;2023-08-24T05:27:06;21.80;99.90
48836;DHT22;62581;47.342;7.908;2023-08-24T05:29:33;21.80;99.90
48836;DHT22;62581;47.342;7.908;2023-08-24T05:32:00;21.80;99.90
48836;DHT22;62581;47.342;7.908;2023-08-24T05:34:28;21.80;99.90
48836;DHT22;62581;47.342;7.908;2023-08-24T05:36:55;21.70;99.90
48836;DHT22;62581;47.342;7.908;2023-08-24T05:39:23;21.80;99.90
48836;DHT22;62581;47.342;7.908;2023-08-24T05:41:50;21.80;99.90
48836;DHT22;62581;47.342;7.908;2023-08-24T05:44:17;21.90;99.90
48836;DHT22;62581;47.342;7.908;2023-08-24T05:46:44;21.90;99.90
48836;DHT22;62581;47.342;7.908;2023-08-24T05:49:11;22.00;99.90
48836;DHT22;62581;47.342;7.908;2023-08-24T05:51:37;22.10;99.90
48836;DHT22;62581;47.342;7.908;2023-08-24T05:54:04;22.20;99.90
48836;DHT22;62581;47.342;7.908;2023-08-24T05:56:32;22.30;99.90
48836;DHT22;62581;47.342;7.908;2023-08-24T05:58:59;22.30;99.90
48836;DHT22;62581;47.342;7.908;2023-08-24T06:01:26;22.40;99.90
48836;DHT22;62581;47.342;7.908;2023-08-24T06:03:53;22.40;99.90
48836;DHT22;62581;47.342;7.908;2023-08-24T06:06:20;22.50;99.90
48836;DHT22;62581;47.342;7.908;2023-08-24T06:08:46;22.50;99.90
48836;DHT22;62581;47.342;7.908;2023-08-24T06:11:13;22.50;99.90
48836;DHT22;62581;47.342;7.908;2023-08-24T06:13:41;22.60;99.90
48836;DHT22;62581;47.342;7.908;2023-08-24T06:16:08;22.60;99.90
48836;DHT22;62581;47.342;7.908;2023-08-24T06:18:35;22.60;99.90
48836;DHT22;62581;47.342;7.908;2023-08-24T06:21:02;22.70;99.90
48836;DHT22;62581;47.342;7.908;2023-08-24T06:23:28;22.70;99.90
48836;DHT22;62581;47.342;7.908;2023-08-24T06:25:55;22.80;99.90
48836;DHT22;62581;47.342;7.908;2023-08-24T06:28:22;22.90;99.90
48836;DHT22;62581;47.342;7.908;2023-08-24T06:30:50;23.00;99.90
48836;DHT22;62581;47.342;7.908;2023-08-24T06:33:17;23.10;99.90
48836;DHT22;62581;47.342;7.908;2023-08-24T06:35:44;23.20;99.90
48836;DHT22;62581;47.342;7.908;2023-08-24T06:38:10;23.20;99.90
48836;DHT22;62581;47.342;7.908;2023-08-24T06:40:37;23.20;99.90
48836;DHT22;62581;47.342;7.908;2023-08-24T06:43:04;23.20;99.90
48836;DHT22;62581;47.342;7.908;2023-08-24T06:45:31;23.20;99.90
48836;DHT22;62581;47.342;7.908;2023-08-24T06:47:59;23.20;99.90
48836;DHT22;62581;47.342;7.908;2023-08-24T06:50:26;23.10;99.90
48836;DHT22;62581;47.342;7.908;2023-08-24T06:52:53;23.10;99.90
48836;DHT22;62581;47.342;7.908;2023-08-24T06:55:19;23.10;99.90
48836;DHT22;62581;47.342;7.908;2023-08-24T06:57:47;23.20;99.90
48836;DHT22;62581;47.342;7.908;2023-08-24T07:00:14;23.20;99.90
48836;DHT22;62581;47.342;7.908;2023-08-24T07:02:41;23.30;99.90
48836;DHT22;62581;47.342;7.908;2023-08-24T07:05:09;23.30;99.90
48836;DHT22;62581;47.342;7.908;2023-08-24T07:07:37;23.30;99.90
48836;DHT22;62581;47.342;7.908;2023-08-24T07:10:05;23.40;99.90
48836;DHT22;62581;47.342;7.908;2023-08-24T07:12:32;23.40;99.90
48836;DHT22;62581;47.342;7.908;2023-08-24T07:14:59;23.40;99.90
48836;DHT22;62581;47.342;7.908;2023-08-24T07:17:25;23.50;99.90
48836;DHT22;62581;47.342;7.908;2023-08-24T07:19:52;23.50;99.90
48836;DHT22;62581;47.342;7.908;2023-08-24T07:22:20;23.60;99.90
48836;DHT22;62581;47.342;7.908;2023-08-24T07:24:47;23.70;99.90
48836;DHT22;62581;47.342;7.908;2023-08-24T07:27:17;23.70;99.90
48836;DHT22;62581;47.342;7.908;2023-08-24T07:29:44;23.80;99.90
48836;DHT22;62581;47.342;7.908;2023-08-24T07:32:11;23.90;99.90
48836;DHT22;62581;47.342;7.908;2023-08-24T07:34:37;23.90;99.90
48836;DHT22;62581;47.342;7.908;2023-08-24T07:37:04;24.00;99.90
48836;DHT22;62581;47.342;7.908;2023-08-24T07:39:33;24.20;99.90
48836;DHT22;62581;47.342;7.908;2023-08-24T07:42:00;24.30;99.90
48836;DHT22;62581;47.342;7.908;2023-08-24T07:44:26;24.30;99.90
48836;DHT22;62581;47.342;7.908;2023-08-24T07:46:53;24.40;99.90
48836;DHT22;62581;47.342;7.908;2023-08-24T07:49:20;24.50;99.90
48836;DHT22;62581;47.342;7.908;2023-08-24T07:51:47;24.50;99.90
48836;DHT22;62581;47.342;7.908;2023-08-24T07:54:14;24.70;99.90
48836;DHT22;62581;47.342;7.908;2023-08-24T07:56:42;24.70;99.90
48836;DHT22;62581;47.342;7.908;2023-08-24T07:59:09;24.80;99.90
48836;DHT22;62581;47.342;7.908;2023-08-24T08:01:36;24.90;99.90
48836;DHT22;62581;47.342;7.908;2023-08-24T08:04:05;24.90;99.90
48836;DHT22;62581;47.342;7.908;2023-08-24T08:06:32;25.10;99.90
48836;DHT22;62581;47.342;7.908;2023-08-24T08:08:59;25.10;99.90
48836;DHT22;62581;47.342;7.908;2023-08-24T08:11:26;25.10;99.90
48836;DHT22;62581;47.342;7.908;2023-08-24T08:13:54;25.30;99.90
48836;DHT22;62581;47.342;7.908;2023-08-24T08:16:22;25.40;99.90
48836;DHT22;62581;47.342;7.908;2023-08-24T08:18:51;25.50;99.90
48836;DHT22;62581;47.342;7.908;2023-08-24T08:21:23;25.50;99.90
48836;DHT22;62581;47.342;7.908;2023-08-24T08:23:50;25.60;99.90
48836;DHT22;62581;47.342;7.908;2023-08-24T08:26:19;25.70;99.90
48836;DHT22;62581;47.342;7.908;2023-08-24T08:28:45;25.80;99.90
48836;DHT22;62581;47.342;7.908;2023-08-24T08:31:14;25.80;99.90
48836;DHT22;62581;47.342;7.908;2023-08-24T08:33:47;25.90;99.90
48836;DHT22;62581;47.342;7.908;2023-08-24T08:36:31;26.00;99.90
48836;DHT22;62581;47.342;7.908;2023-08-24T08:39:14;26.10;99.90
48836;DHT22;62581;47.342;7.908;2023-08-24T08:41:47;26.20;99.90
48836;DHT22;62581;47.342;7.908;2023-08-24T08:44:17;26.30;99.90
48836;DHT22;62581;47.342;7.908;2023-08-24T08:46:57;26.40;99.90
48836;DHT22;62581;47.342;7.908;2023-08-24T08:49:43;26.50;99.90
48836;DHT22;62581;47.342;7.908;2023-08-24T08:52:15;26.50;99.90
48836;DHT22;62581;47.342;7.908;2023-08-24T08:54:48;26.60;99.90
48836;DHT22;62581;47.342;7.908;2023-08-24T08:57:18;26.60;99.90
48836;DHT22;62581;47.342;7.908;2023-08-24T08:59:51;26.70;99.90
48836;DHT22;62581;47.342;7.908;2023-08-24T09:02:23;26.80;99.90
48836;DHT22;62581;47.342;7.908;2023-08-24T09:04:52;26.90;99.90
48836;DHT22;62581;47.342;7.908;2023-08-24T09:07:22;27.00;99.90
48836;DHT22;62581;47.342;7.908;2023-08-24T09:09:55;27.10;99.90
48836;DHT22;62581;47.342;7.908;2023-08-24T09:12:36;27.20;99.90
48836;DHT22;62581;47.342;7.908;2023-08-24T09:15:03;27.20;99.90
48836;DHT22;62581;47.342;7.908;2023-08-24T09:17:33;27.30;99.90
48836;DHT22;62581;47.342;7.908;2023-08-24T09:20:00;27.40;99.90
48836;DHT22;62581;47.342;7.908;2023-08-24T09:22:27;27.40;99.90
48836;DHT22;62581;47.342;7.908;2023-08-24T09:25:01;27.60;99.90
48836;DHT22;62581;47.342;7.908;2023-08-24T09:27:29;27.70;99.90
48836;DHT22;62581;47.342;7.908;2023-08-24T09:29:56;27.80;99.90
48836;DHT22;62581;47.342;7.908;2023-08-24T09:32:23;27.90;99.90
48836;DHT22;62581;47.342;7.908;2023-08-24T09:34:51;28.10;99.90
48836;DHT22;62581;47.342;7.908;2023-08-24T09:37:18;28.30;99.90
48836;DHT22;62581;47.342;7.908;2023-08-24T09:39:45;28.30;99.90
48836;DHT22;62581;47.342;7.908;2023-08-24T09:42:13;28.50;99.90
48836;DHT22;62581;47.342;7.908;2023-08-24T09:44:43;28.60;99.90
48836;DHT22;62581;47.342;7.908;2023-08-24T09:47:09;28.60;99.90
48836;DHT22;62581;47.342;7.908;2023-08-24T09:49:37;28.70;99.90
48836;DHT22;62581;47.342;7.908;2023-08-24T09:52:07;28.80;99.90
48836;DHT22;62581;47.342;7.908;2023-08-24T09:54:36;28.90;99.90
48836;DHT22;62581;47.342;7.908;2023-08-24T09:57:03;29.10;99.90
48836;DHT22;62581;47.342;7.908;2023-08-24T09:59:31;29.20;99.90
48836;DHT22;62581;47.342;7.908;2023-08-24T10:01:57;29.30;99.90
48836;DHT22;62581;47.342;7.908;2023-08-24T10:04:28;29.40;99.90
48836;DHT22;62581;47.342;7.908;2023-08-24T10:06:56;29.50;99.90
48836;DHT22;62581;47.342;7.908;2023-08-24T10:09:27;29.60;99.90
48836;DHT22;62581;47.342;7.908;2023-08-24T10:11:58;29.70;99.90
48836;DHT22;62581;47.342;7.908;2023-08-24T10:14:27;29.80;99.90
48836;DHT22;62581;47.342;7.908;2023-08-24T10:16:55;29.90;99.90
48836;DHT22;62581;47.342;7.908;2023-08-24T10:19:22;30.00;99.90
48836;DHT22;62581;47.342;7.908;2023-08-24T10:21:49;30.10;99.90
48836;DHT22;62581;47.342;7.908;2023-08-24T10:24:17;30.10;99.90
48836;DHT22;62581;47.342;7.908;2023-08-24T10:26:47;30.20;99.90
48836;DHT22;62581;47.342;7.908;2023-08-24T10:29:14;30.20;99.90
48836;DHT22;62581;47.342;7.908;2023-08-24T10:31:42;30.30;99.90
48836;DHT22;62581;47.342;7.908;2023-08-24T10:34:09;30.40;99.90
48836;DHT22;62581;47.342;7.908;2023-08-24T10:36:37;30.60;99.90
48836;DHT22;62581;47.342;7.908;2023-08-24T10:39:04;30.70;99.90
48836;DHT22;62581;47.342;7.908;2023-08-24T10:41:46;30.60;99.90
48836;DHT22;62581;47.342;7.908;2023-08-24T10:44:19;30.60;99.90
48836;DHT22;62581;47.342;7.908;2023-08-24T10:46:59;30.70;99.90
48836;DHT22;62581;47.342;7.908;2023-08-24T10:49:32;30.90;99.90
48836;DHT22;62581;47.342;7.908;2023-08-24T10:52:00;30.90;99.90
48836;DHT22;62581;47.342;7.908;2023-08-24T10:54:42;31.00;99.90
48836;DHT22;62581;47.342;7.908;2023-08-24T10:57:16;31.00;99.90
48836;DHT22;62581;47.342;7.908;2023-08-24T10:59:45;31.10;99.90
48836;DHT22;62581;47.342;7.908;2023-08-24T11:02:17;31.30;99.90
48836;DHT22;62581;47.342;7.908;2023-08-24T11:07:26;31.50;99.90
48836;DHT22;62581;47.342;7.908;2023-08-24T11:09:53;31.60;99.90
48836;DHT22;62581;47.342;7.908;2023-08-24T11:12:20;31.70;99.90
48836;DHT22;62581;47.342;7.908;2023-08-24T11:14:52;31.70;99.90
48836;DHT22;62581;47.342;7.908;2023-08-24T11:17:20;31.80;99.90
48836;DHT22;62581;47.342;7.908;2023-08-24T11:19:49;31.90;99.90
48836;DHT22;62581;47.342;7.908;2023-08-24T11:22:16;32.10;99.90
48836;DHT22;62581;47.342;7.908;2023-08-24T11:24:43;32.20;99.90
48836;DHT22;62581;47.342;7.908;2023-08-24T11:27:09;32.30;99.90
48836;DHT22;62581;47.342;7.908;2023-08-24T11:29:36;32.40;99.20
48836;DHT22;62581;47.342;7.908;2023-08-24T11:32:05;32.50;98.50
48836;DHT22;62581;47.342;7.908;2023-08-24T11:34:32;32.60;98.30
48836;DHT22;62581;47.342;7.908;2023-08-24T11:37:00;32.60;98.50
48836;DHT22;62581;47.342;7.908;2023-08-24T11:39:27;32.70;99.20
48836;DHT22;62581;47.342;7.908;2023-08-24T11:41:57;32.60;99.80
48836;DHT22;62581;47.342;7.908;2023-08-24T11:44:24;32.70;99.80
48836;DHT22;62581;47.342;7.908;2023-08-24T11:46:51;32.80;98.10
48836;DHT22;62581;47.342;7.908;2023-08-24T11:49:20;33.00;98.30
48836;DHT22;62581;47.342;7.908;2023-08-24T11:51:46;33.10;98.70
48836;DHT22;62581;47.342;7.908;2023-08-24T11:54:16;33.20;99.10
48836;DHT22;62581;47.342;7.908;2023-08-24T11:56:42;33.30;98.30
48836;DHT22;62581;47.342;7.908;2023-08-24T11:59:11;33.40;97.70
48836;DHT22;62581;47.342;7.908;2023-08-24T12:01:40;33.50;98.00
48836;DHT22;62581;47.342;7.908;2023-08-24T12:04:07;33.70;97.00
48836;DHT22;62581;47.342;7.908;2023-08-24T12:06:36;33.70;96.40
48836;DHT22;62581;47.342;7.908;2023-08-24T12:09:06;33.80;96.20
48836;DHT22;62581;47.342;7.908;2023-08-24T12:11:35;33.90;96.00
48836;DHT22;62581;47.342;7.908;2023-08-24T12:14:02;34.00;95.40
48836;DHT22;62581;47.342;7.908;2023-08-24T12:16:30;34.10;95.40
48836;DHT22;62581;47.342;7.908;2023-08-24T12:18:58;34.10;95.20
48836;DHT22;62581;47.342;7.908;2023-08-24T12:21:28;34.30;95.20
48836;DHT22;62581;47.342;7.908;2023-08-24T12:23:57;34.80;94.00
48836;DHT22;62581;47.342;7.908;2023-08-24T12:26:25;35.60;93.20
48836;DHT22;62581;47.342;7.908;2023-08-24T12:28:51;36.70;92.00
48836;DHT22;62581;47.342;7.908;2023-08-24T12:31:19;38.00;90.50
48836;DHT22;62581;47.342;7.908;2023-08-24T12:33:45;39.30;86.80
48836;DHT22;62581;47.342;7.908;2023-08-24T12:36:12;40.30;80.00
48836;DHT22;62581;47.342;7.908;2023-08-24T12:38:39;41.00;77.40
48836;DHT22;62581;47.342;7.908;2023-08-24T12:41:09;41.60;73.70
48836;DHT22;62581;47.342;7.908;2023-08-24T12:43:36;42.50;72.30
48836;DHT22;62581;47.342;7.908;2023-08-24T12:46:02;42.80;68.50
48836;DHT22;62581;47.342;7.908;2023-08-24T12:48:29;43.00;67.40
48836;DHT22;62581;47.342;7.908;2023-08-24T12:50:56;43.00;67.50
48836;DHT22;62581;47.342;7.908;2023-08-24T12:53:23;43.50;65.90
48836;DHT22;62581;47.342;7.908;2023-08-24T12:55:50;44.00;64.40
48836;DHT22;62581;47.342;7.908;2023-08-24T12:58:18;44.30;62.50
48836;DHT22;62581;47.342;7.908;2023-08-24T13:00:45;44.40;62.60
48836;DHT22;62581;47.342;7.908;2023-08-24T13:03:14;45.00;62.30
48836;DHT22;62581;47.342;7.908;2023-08-24T13:05:41;45.50;61.10
48836;DHT22;62581;47.342;7.908;2023-08-24T13:08:07;45.80;59.80
48836;DHT22;62581;47.342;7.908;2023-08-24T13:10:34;46.30;59.40
48836;DHT22;62581;47.342;7.908;2023-08-24T13:13:04;46.60;58.50
48836;DHT22;62581;47.342;7.908;2023-08-24T13:15:35;46.40;58.60
48836;DHT22;62581;47.342;7.908;2023-08-24T13:18:07;46.00;58.30
48836;DHT22;62581;47.342;7.908;2023-08-24T13:20:36;46.10;58.40
48836;DHT22;62581;47.342;7.908;2023-08-24T13:23:05;46.80;57.90
48836;DHT22;62581;47.342;7.908;2023-08-24T13:25:46;46.90;56.60
48836;DHT22;62581;47.342;7.908;2023-08-24T13:28:14;46.80;55.80
48836;DHT22;62581;47.342;7.908;2023-08-24T13:30:48;45.70;55.30
48836;DHT22;62581;47.342;7.908;2023-08-24T13:33:16;43.70;57.40
48836;DHT22;62581;47.342;7.908;2023-08-24T13:35:46;42.90;58.90
48836;DHT22;62581;47.342;7.908;2023-08-24T13:38:18;44.20;58.20
48836;DHT22;62581;47.342;7.908;2023-08-24T13:41:03;44.90;57.40
48836;DHT22;62581;47.342;7.908;2023-08-24T13:43:36;45.20;56.30
48836;DHT22;62581;47.342;7.908;2023-08-24T13:46:08;45.00;56.00
48836;DHT22;62581;47.342;7.908;2023-08-24T13:48:35;44.30;56.90
48836;DHT22;62581;47.342;7.908;2023-08-24T13:51:02;44.30;55.90
48836;DHT22;62581;47.342;7.908;2023-08-24T13:53:29;43.20;57.70
48836;DHT22;62581;47.342;7.908;2023-08-24T13:55:56;43.30;57.70
48836;DHT22;62581;47.342;7.908;2023-08-24T13:58:23;42.80;58.00
48836;DHT22;62581;47.342;7.908;2023-08-24T14:00:54;41.10;60.00
48836;DHT22;62581;47.342;7.908;2023-08-24T14:03:22;40.30;61.70
48836;DHT22;62581;47.342;7.908;2023-08-24T14:05:49;40.50;60.90
48836;DHT22;62581;47.342;7.908;2023-08-24T14:08:21;41.00;61.50
48836;DHT22;62581;47.342;7.908;2023-08-24T14:10:47;42.60;59.70
48836;DHT22;62581;47.342;7.908;2023-08-24T14:13:15;44.00;58.50
48836;DHT22;62581;47.342;7.908;2023-08-24T14:15:41;46.00;56.60
48836;DHT22;62581;47.342;7.908;2023-08-24T14:18:10;45.90;55.00
48836;DHT22;62581;47.342;7.908;2023-08-24T14:20:39;45.70;54.70
48836;DHT22;62581;47.342;7.908;2023-08-24T14:23:05;44.50;56.00
48836;DHT22;62581;47.342;7.908;2023-08-24T14:25:33;43.40;57.20
48836;DHT22;62581;47.342;7.908;2023-08-24T14:27:59;42.70;58.20
48836;DHT22;62581;47.342;7.908;2023-08-24T14:30:26;42.30;58.30
48836;DHT22;62581;47.342;7.908;2023-08-24T14:32:53;42.50;58.50
48836;DHT22;62581;47.342;7.908;2023-08-24T14:35:19;42.90;57.60
48836;DHT22;62581;47.342;7.908;2023-08-24T14:37:48;44.10;57.00
48836;DHT22;62581;47.342;7.908;2023-08-24T14:40:14;44.70;55.80
48836;DHT22;62581;47.342;7.908;2023-08-24T14:42:45;45.80;54.00
48836;DHT22;62581;47.342;7.908;2023-08-24T14:45:14;45.70;54.30
48836;DHT22;62581;47.342;7.908;2023-08-24T14:47:41;45.90;53.60
48836;DHT22;62581;47.342;7.908;2023-08-24T14:50:08;45.60;53.50
48836;DHT22;62581;47.342;7.908;2023-08-24T14:52:36;45.30;53.80
48836;DHT22;62581;47.342;7.908;2023-08-24T14:55:05;45.40;54.10
48836;DHT22;62581;47.342;7.908;2023-08-24T14:57:33;45.70;54.20
48836;DHT22;62581;47.342;7.908;2023-08-24T15:00:00;45.30;52.80
48836;DHT22;62581;47.342;7.908;2023-08-24T15:02:27;44.90;53.70
48836;DHT22;62581;47.342;7.908;2023-08-24T15:04:53;45.80;53.80
48836;DHT22;62581;47.342;7.908;2023-08-24T15:07:20;46.20;53.10
48836;DHT22;62581;47.342;7.908;2023-08-24T15:09:47;46.70;52.70
48836;DHT22;62581;47.342;7.908;2023-08-24T15:12:15;46.40;52.60
48836;DHT22;62581;47.342;7.908;2023-08-24T15:14:55;46.80;52.80
48836;DHT22;62581;47.342;7.908;2023-08-24T15:17:23;47.30;52.20
48836;DHT22;62581;47.342;7.908;2023-08-24T15:19:50;47.60;50.60
48836;DHT22;62581;47.342;7.908;2023-08-24T15:22:16;47.60;51.10
48836;DHT22;62581;47.342;7.908;2023-08-24T15:24:43;47.30;50.60
48836;DHT22;62581;47.342;7.908;2023-08-24T15:27:10;46.60;51.20
48836;DHT22;62581;47.342;7.908;2023-08-24T15:29:38;46.00;51.80
48836;DHT22;62581;47.342;7.908;2023-08-24T15:32:05;44.70;53.00
48836;DHT22;62581;47.342;7.908;2023-08-24T15:34:32;43.50;53.90
48836;DHT22;62581;47.342;7.908;2023-08-24T15:36:59;42.70;55.10
48836;DHT22;62581;47.342;7.908;2023-08-24T15:39:26;41.60;56.30
48836;DHT22;62581;47.342;7.908;2023-08-24T15:41:52;40.80;58.40
48836;DHT22;62581;47.342;7.908;2023-08-24T15:44:19;40.10;58.70
48836;DHT22;62581;47.342;7.908;2023-08-24T15:46:46;39.60;59.90
48836;DHT22;62581;47.342;7.908;2023-08-24T15:49:13;39.10;59.90
48836;DHT22;62581;47.342;7.908;2023-08-24T15:51:40;38.70;60.60
48836;DHT22;62581;47.342;7.908;2023-08-24T15:54:07;38.20;61.10
48836;DHT22;62581;47.342;7.908;2023-08-24T15:56:34;37.80;61.80
48836;DHT22;62581;47.342;7.908;2023-08-24T15:59:01;37.50;63.10
48836;DHT22;62581;47.342;7.908;2023-08-24T16:01:28;37.10;63.90